sensor_id;sensor_type;location;lat;lon;timestamp;P1;durP1;ratioP1;P2;durP2;ratioP2
20067;SDS011;10194;50.824;7.134;2022-10-31T00:02:22;227.40;;;175.60;;
20067;SDS011;10194;50.824;7.134;2022-10-31T00:04:48;222.93;;;176.63;;
20067;SDS011;10194;50.824;7.134;2022-10-31T00:07:14;227.93;;;171.60;;
20067;SDS011;10194;50.824;7.134;2022-10-31T00:09:39;234.97;;;176.17;;
20067;SDS011;10194;50.824;7.134;2022-10-31T00:12:05;233.70;;;184.73;;
20067;SDS011;10194;50.824;7.134;2022-10-31T00:14:31;240.70;;;186.30;;
20067;SDS011;10194;50.824;7.134;2022-10-31T00:16:57;244.30;;;188.33;;
20067;SDS011;10194;50.824;7.134;2022-10-31T00:19:22;236.87;;;182.30;;
20067;SDS011;10194;50.824;7.134;2022-10-31T00:21:48;233.23;;;182.37;;
20067;SDS011;10194;50.824;7.134;2022-10-31T00:24:16;245.53;;;189.40;;
20067;SDS011;10194;50.824;7.134;2022-10-31T00:26:42;239.97;;;193.43;;
20067;SDS011;10194;50.824;7.134;2022-10-31T00:29:08;241.60;;;193.27;;
20067;SDS011;10194;50.824;7.134;2022-10-31T00:31:33;256.50;;;194.57;;
20067;SDS011;10194;50.824;7.134;2022-10-31T00:33:59;246.87;;;195.47;;
20067;SDS011;10194;50.824;7.134;2022-10-31T00:36:30;243.07;;;184.63;;
20067;SDS011;10194;50.824;7.134;2022-10-31T00:38:57;251.30;;;200.87;;
20067;SDS011;10194;50.824;7.134;2022-10-31T00:41:23;257.07;;;208.00;;
20067;SDS011;10194;50.824;7.134;2022-10-31T00:43:49;251.13;;;210.50;;
20067;SDS011;10194;50.824;7.134;2022-10-31T00:46:15;249.90;;;204.77;;
20067;SDS011;10194;50.824;7.134;2022-10-31T00:48:42;243.80;;;200.17;;
20067;SDS011;10194;50.824;7.134;2022-10-31T00:51:08;232.53;;;189.17;;
20067;SDS011;10194;50.824;7.134;2022-10-31T00:53:34;232.70;;;177.83;;
20067;SDS011;10194;50.824;7.134;2022-10-31T00:56:00;224.67;;;171.67;;
20067;SDS011;10194;50.824;7.134;2022-10-31T00:58:26;219.60;;;163.13;;
20067;SDS011;10194;50.824;7.134;2022-10-31T01:00:51;217.80;;;154.97;;
20067;SDS011;10194;50.824;7.134;2022-10-31T01:03:37;207.43;;;140.80;;
20067;SDS011;10194;50.824;7.134;2022-10-31T01:06:08;217.70;;;148.50;;
20067;SDS011;10194;50.824;7.134;2022-10-31T01:08:36;217.73;;;154.23;;
20067;SDS011;10194;50.824;7.134;2022-10-31T01:11:17;206.83;;;134.47;;
20067;SDS011;10194;50.824;7.134;2022-10-31T01:13:45;220.53;;;162.00;;
20067;SDS011;10194;50.824;7.134;2022-10-31T01:16:14;220.90;;;163.30;;
20067;SDS011;10194;50.824;7.134;2022-10-31T01:18:43;235.57;;;193.67;;
20067;SDS011;10194;50.824;7.134;2022-10-31T01:21:14;236.10;;;193.37;;
20067;SDS011;10194;50.824;7.134;2022-10-31T01:23:45;225.17;;;176.93;;
20067;SDS011;10194;50.824;7.134;2022-10-31T01:26:16;220.97;;;166.83;;
20067;SDS011;10194;50.824;7.134;2022-10-31T01:31:17;223.90;;;175.93;;
20067;SDS011;10194;50.824;7.134;2022-10-31T01:33:46;217.47;;;157.37;;
20067;SDS011;10194;50.824;7.134;2022-10-31T01:36:17;219.70;;;158.60;;
20067;SDS011;10194;50.824;7.134;2022-10-31T01:38:46;225.53;;;172.93;;
20067;SDS011;10194;50.824;7.134;2022-10-31T01:41:14;224.77;;;163.67;;
20067;SDS011;10194;50.824;7.134;2022-10-31T01:46:14;221.20;;;157.03;;
20067;SDS011;10194;50.824;7.134;2022-10-31T01:48:44;230.23;;;163.47;;
20067;SDS011;10194;50.824;7.134;2022-10-31T01:51:11;223.37;;;161.43;;
20067;SDS011;10194;50.824;7.134;2022-10-31T01:53:39;218.60;;;165.83;;
20067;SDS011;10194;50.824;7.134;2022-10-31T01:56:06;224.93;;;166.77;;
20067;SDS011;10194;50.824;7.134;2022-10-31T01:58:33;222.97;;;163.40;;
20067;SDS011;10194;50.824;7.134;2022-10-31T02:01:00;223.37;;;160.27;;
20067;SDS011;10194;50.824;7.134;2022-10-31T02:03:27;223.77;;;166.60;;
20067;SDS011;10194;50.824;7.134;2022-10-31T02:05:54;227.10;;;177.50;;
20067;SDS011;10194;50.824;7.134;2022-10-31T02:10:59;226.27;;;185.77;;
20067;SDS011;10194;50.824;7.134;2022-10-31T02:13:26;226.77;;;177.40;;
20067;SDS011;10194;50.824;7.134;2022-10-31T02:15:55;227.47;;;170.00;;
20067;SDS011;10194;50.824;7.134;2022-10-31T02:18:24;222.17;;;177.20;;
20067;SDS011;10194;50.824;7.134;2022-10-31T02:21:03;224.47;;;168.07;;
20067;SDS011;10194;50.824;7.134;2022-10-31T02:41:21;232.20;;;194.60;;
20067;SDS011;10194;50.824;7.134;2022-10-31T02:52:14;228.87;;;182.47;;
20067;SDS011;10194;50.824;7.134;2022-10-31T02:54:48;234.00;;;201.73;;
20067;SDS011;10194;50.824;7.134;2022-10-31T02:57:16;229.30;;;195.67;;
20067;SDS011;10194;50.824;7.134;2022-10-31T02:59:56;230.90;;;201.13;;
20067;SDS011;10194;50.824;7.134;2022-10-31T03:05:18;229.70;;;190.30;;
20067;SDS011;10194;50.824;7.134;2022-10-31T03:10:43;232.57;;;195.77;;
20067;SDS011;10194;50.824;7.134;2022-10-31T03:17:03;231.37;;;195.40;;
20067;SDS011;10194;50.824;7.134;2022-10-31T03:19:33;242.97;;;206.47;;
20067;SDS011;10194;50.824;7.134;2022-10-31T03:22:10;244.27;;;217.43;;
20067;SDS011;10194;50.824;7.134;2022-10-31T03:24:46;258.73;;;230.73;;
20067;SDS011;10194;50.824;7.134;2022-10-31T03:27:16;277.43;;;248.53;;
20067;SDS011;10194;50.824;7.134;2022-10-31T03:29:49;282.23;;;252.70;;
20067;SDS011;10194;50.824;7.134;2022-10-31T03:32:19;268.90;;;240.50;;
20067;SDS011;10194;50.824;7.134;2022-10-31T03:35:00;264.57;;;236.33;;
20067;SDS011;10194;50.824;7.134;2022-10-31T03:37:29;259.10;;;230.97;;
20067;SDS011;10194;50.824;7.134;2022-10-31T03:39:58;254.93;;;227.27;;
20067;SDS011;10194;50.824;7.134;2022-10-31T03:42:28;253.97;;;226.50;;
20067;SDS011;10194;50.824;7.134;2022-10-31T03:45:03;250.80;;;223.33;;
20067;SDS011;10194;50.824;7.134;2022-10-31T03:47:38;250.40;;;223.50;;
20067;SDS011;10194;50.824;7.134;2022-10-31T03:50:05;255.40;;;227.80;;
20067;SDS011;10194;50.824;7.134;2022-10-31T03:55:52;279.40;;;250.40;;
20067;SDS011;10194;50.824;7.134;2022-10-31T03:58:06;273.63;;;244.93;;
20067;SDS011;10194;50.824;7.134;2022-10-31T04:00:38;277.80;;;248.87;;
20067;SDS011;10194;50.824;7.134;2022-10-31T04:03:19;274.93;;;246.20;;
20067;SDS011;10194;50.824;7.134;2022-10-31T04:05:52;275.17;;;246.07;;
20067;SDS011;10194;50.824;7.134;2022-10-31T04:08:21;272.20;;;243.50;;
20067;SDS011;10194;50.824;7.134;2022-10-31T04:10:52;267.07;;;238.20;;
20067;SDS011;10194;50.824;7.134;2022-10-31T04:13:20;262.57;;;233.77;;
20067;SDS011;10194;50.824;7.134;2022-10-31T04:15:52;266.90;;;237.90;;
20067;SDS011;10194;50.824;7.134;2022-10-31T04:18:20;260.43;;;229.70;;
20067;SDS011;10194;50.824;7.134;2022-10-31T04:20:47;259.70;;;223.67;;
20067;SDS011;10194;50.824;7.134;2022-10-31T04:23:20;254.50;;;213.13;;
20067;SDS011;10194;50.824;7.134;2022-10-31T04:25:49;254.53;;;212.07;;
20067;SDS011;10194;50.824;7.134;2022-10-31T04:28:15;255.70;;;213.07;;
20067;SDS011;10194;50.824;7.134;2022-10-31T04:30:41;254.17;;;220.70;;
20067;SDS011;10194;50.824;7.134;2022-10-31T04:33:06;254.63;;;224.73;;
20067;SDS011;10194;50.824;7.134;2022-10-31T04:35:32;271.00;;;241.93;;
20067;SDS011;10194;50.824;7.134;2022-10-31T04:37:58;272.73;;;243.80;;
20067;SDS011;10194;50.824;7.134;2022-10-31T04:40:24;269.57;;;240.47;;
20067;SDS011;10194;50.824;7.134;2022-10-31T04:42:49;281.60;;;251.37;;
20067;SDS011;10194;50.824;7.134;2022-10-31T04:45:15;275.73;;;246.83;;
20067;SDS011;10194;50.824;7.134;2022-10-31T04:47:41;275.77;;;246.43;;
20067;SDS011;10194;50.824;7.134;2022-10-31T04:50:07;278.13;;;249.07;;
20067;SDS011;10194;50.824;7.134;2022-10-31T04:52:38;270.80;;;242.20;;
20067;SDS011;10194;50.824;7.134;2022-10-31T04:55:05;260.17;;;231.37;;
20067;SDS011;10194;50.824;7.134;2022-10-31T04:57:31;256.40;;;223.93;;
20067;SDS011;10194;50.824;7.134;2022-10-31T04:59:57;250.77;;;209.03;;
20067;SDS011;10194;50.824;7.134;2022-10-31T05:02:23;248.73;;;195.03;;
20067;SDS011;10194;50.824;7.134;2022-10-31T05:04:48;249.77;;;190.97;;
20067;SDS011;10194;50.824;7.134;2022-10-31T05:07:14;251.23;;;204.07;;
20067;SDS011;10194;50.824;7.134;2022-10-31T05:09:40;253.27;;;207.47;;
20067;SDS011;10194;50.824;7.134;2022-10-31T05:12:06;248.27;;;210.57;;
20067;SDS011;10194;50.824;7.134;2022-10-31T05:14:31;255.73;;;212.43;;
20067;SDS011;10194;50.824;7.134;2022-10-31T05:16:57;248.23;;;200.23;;
20067;SDS011;10194;50.824;7.134;2022-10-31T05:19:23;246.97;;;189.17;;
20067;SDS011;10194;50.824;7.134;2022-10-31T05:21:49;245.60;;;184.43;;
20067;SDS011;10194;50.824;7.134;2022-10-31T05:24:14;247.83;;;190.77;;
20067;SDS011;10194;50.824;7.134;2022-10-31T05:26:40;249.80;;;201.73;;
20067;SDS011;10194;50.824;7.134;2022-10-31T05:29:06;252.37;;;197.90;;
20067;SDS011;10194;50.824;7.134;2022-10-31T05:31:31;253.23;;;203.67;;
20067;SDS011;10194;50.824;7.134;2022-10-31T05:33:57;247.67;;;201.47;;
20067;SDS011;10194;50.824;7.134;2022-10-31T05:36:23;246.27;;;197.97;;
20067;SDS011;10194;50.824;7.134;2022-10-31T05:38:49;252.03;;;209.23;;
20067;SDS011;10194;50.824;7.134;2022-10-31T05:41:15;248.57;;;198.17;;
20067;SDS011;10194;50.824;7.134;2022-10-31T05:43:40;248.23;;;195.53;;
20067;SDS011;10194;50.824;7.134;2022-10-31T05:46:06;247.40;;;192.53;;
20067;SDS011;10194;50.824;7.134;2022-10-31T05:48:32;246.70;;;198.13;;
20067;SDS011;10194;50.824;7.134;2022-10-31T05:50:58;248.77;;;202.53;;
20067;SDS011;10194;50.824;7.134;2022-10-31T05:53:23;252.73;;;201.03;;
20067;SDS011;10194;50.824;7.134;2022-10-31T05:55:49;255.30;;;203.97;;
20067;SDS011;10194;50.824;7.134;2022-10-31T05:58:15;254.10;;;204.77;;
20067;SDS011;10194;50.824;7.134;2022-10-31T06:00:41;253.03;;;205.30;;
20067;SDS011;10194;50.824;7.134;2022-10-31T06:03:07;253.70;;;203.80;;
20067;SDS011;10194;50.824;7.134;2022-10-31T06:05:34;252.37;;;190.57;;
20067;SDS011;10194;50.824;7.134;2022-10-31T06:08:00;248.50;;;187.53;;
20067;SDS011;10194;50.824;7.134;2022-10-31T06:10:26;248.97;;;187.07;;
20067;SDS011;10194;50.824;7.134;2022-10-31T06:12:52;253.90;;;185.23;;
20067;SDS011;10194;50.824;7.134;2022-10-31T06:15:18;247.73;;;185.70;;
20067;SDS011;10194;50.824;7.134;2022-10-31T06:17:44;257.40;;;199.37;;
20067;SDS011;10194;50.824;7.134;2022-10-31T06:20:10;248.23;;;184.63;;
20067;SDS011;10194;50.824;7.134;2022-10-31T06:22:36;248.63;;;187.90;;
20067;SDS011;10194;50.824;7.134;2022-10-31T06:25:02;252.30;;;199.33;;
20067;SDS011;10194;50.824;7.134;2022-10-31T06:27:28;254.00;;;193.13;;
20067;SDS011;10194;50.824;7.134;2022-10-31T06:29:54;255.27;;;193.47;;
20067;SDS011;10194;50.824;7.134;2022-10-31T06:32:20;254.13;;;187.87;;
20067;SDS011;10194;50.824;7.134;2022-10-31T06:34:45;250.50;;;188.93;;
20067;SDS011;10194;50.824;7.134;2022-10-31T06:37:14;250.77;;;185.03;;
20067;SDS011;10194;50.824;7.134;2022-10-31T06:39:40;251.90;;;189.67;;
20067;SDS011;10194;50.824;7.134;2022-10-31T06:42:06;243.77;;;191.80;;
20067;SDS011;10194;50.824;7.134;2022-10-31T06:44:32;252.50;;;188.53;;
20067;SDS011;10194;50.824;7.134;2022-10-31T06:46:58;245.30;;;187.93;;
20067;SDS011;10194;50.824;7.134;2022-10-31T06:49:23;249.80;;;194.73;;
20067;SDS011;10194;50.824;7.134;2022-10-31T06:51:49;247.97;;;191.47;;
20067;SDS011;10194;50.824;7.134;2022-10-31T06:54:16;247.80;;;179.43;;
20067;SDS011;10194;50.824;7.134;2022-10-31T06:56:42;243.93;;;176.80;;
20067;SDS011;10194;50.824;7.134;2022-10-31T06:59:07;247.13;;;177.17;;
20067;SDS011;10194;50.824;7.134;2022-10-31T07:01:33;248.47;;;173.13;;
20067;SDS011;10194;50.824;7.134;2022-10-31T07:03:59;250.30;;;173.57;;
20067;SDS011;10194;50.824;7.134;2022-10-31T07:06:25;251.67;;;181.30;;
20067;SDS011;10194;50.824;7.134;2022-10-31T07:08:50;246.33;;;173.67;;
20067;SDS011;10194;50.824;7.134;2022-10-31T07:11:16;251.73;;;183.70;;
20067;SDS011;10194;50.824;7.134;2022-10-31T07:13:42;250.20;;;179.57;;
20067;SDS011;10194;50.824;7.134;2022-10-31T07:16:08;250.30;;;188.17;;
20067;SDS011;10194;50.824;7.134;2022-10-31T07:18:37;246.07;;;177.67;;
20067;SDS011;10194;50.824;7.134;2022-10-31T07:21:03;249.20;;;185.57;;
20067;SDS011;10194;50.824;7.134;2022-10-31T07:23:29;251.53;;;186.67;;
20067;SDS011;10194;50.824;7.134;2022-10-31T07:25:56;255.67;;;205.60;;
20067;SDS011;10194;50.824;7.134;2022-10-31T07:28:23;255.23;;;218.33;;
20067;SDS011;10194;50.824;7.134;2022-10-31T07:30:50;263.40;;;234.67;;
20067;SDS011;10194;50.824;7.134;2022-10-31T07:33:21;257.97;;;226.60;;
20067;SDS011;10194;50.824;7.134;2022-10-31T07:35:47;257.70;;;225.13;;
20067;SDS011;10194;50.824;7.134;2022-10-31T07:38:14;257.73;;;222.17;;
20067;SDS011;10194;50.824;7.134;2022-10-31T07:40:40;265.30;;;236.53;;
20067;SDS011;10194;50.824;7.134;2022-10-31T07:43:07;274.13;;;245.00;;
20067;SDS011;10194;50.824;7.134;2022-10-31T07:45:35;271.23;;;242.07;;
20067;SDS011;10194;50.824;7.134;2022-10-31T07:48:01;272.80;;;243.57;;
20067;SDS011;10194;50.824;7.134;2022-10-31T07:50:29;283.23;;;253.50;;
20067;SDS011;10194;50.824;7.134;2022-10-31T07:55:30;287.97;;;258.53;;
20067;SDS011;10194;50.824;7.134;2022-10-31T07:57:58;295.37;;;265.60;;
20067;SDS011;10194;50.824;7.134;2022-10-31T08:00:30;299.23;;;269.33;;
20067;SDS011;10194;50.824;7.134;2022-10-31T08:02:58;305.07;;;274.97;;
20067;SDS011;10194;50.824;7.134;2022-10-31T08:05:32;288.20;;;259.10;;
20067;SDS011;10194;50.824;7.134;2022-10-31T08:07:59;295.63;;;265.83;;
20067;SDS011;10194;50.824;7.134;2022-10-31T08:10:25;297.83;;;267.93;;
20067;SDS011;10194;50.824;7.134;2022-10-31T08:12:58;306.83;;;274.53;;
20067;SDS011;10194;50.824;7.134;2022-10-31T08:15:27;304.23;;;274.07;;
20067;SDS011;10194;50.824;7.134;2022-10-31T08:17:54;307.53;;;277.03;;
20067;SDS011;10194;50.824;7.134;2022-10-31T08:20:20;306.60;;;275.97;;
20067;SDS011;10194;50.824;7.134;2022-10-31T08:22:59;306.97;;;275.60;;
20067;SDS011;10194;50.824;7.134;2022-10-31T08:25:28;307.43;;;276.57;;
20067;SDS011;10194;50.824;7.134;2022-10-31T08:27:56;304.47;;;273.93;;
20067;SDS011;10194;50.824;7.134;2022-10-31T08:30:23;306.70;;;276.07;;
20067;SDS011;10194;50.824;7.134;2022-10-31T08:33:01;307.07;;;275.67;;
20067;SDS011;10194;50.824;7.134;2022-10-31T08:35:38;296.00;;;266.43;;
20067;SDS011;10194;50.824;7.134;2022-10-31T08:38:04;285.73;;;256.17;;
20067;SDS011;10194;50.824;7.134;2022-10-31T08:40:32;291.47;;;261.57;;
20067;SDS011;10194;50.824;7.134;2022-10-31T08:43:03;296.37;;;265.57;;
20067;SDS011;10194;50.824;7.134;2022-10-31T08:45:40;280.93;;;252.20;;
20067;SDS011;10194;50.824;7.134;2022-10-31T08:48:09;271.87;;;243.00;;
20067;SDS011;10194;50.824;7.134;2022-10-31T08:50:40;269.60;;;240.97;;
20067;SDS011;10194;50.824;7.134;2022-10-31T08:53:07;244.90;;;215.37;;
20067;SDS011;10194;50.824;7.134;2022-10-31T08:55:42;240.30;;;203.40;;
20067;SDS011;10194;50.824;7.134;2022-10-31T08:58:11;250.10;;;193.07;;
20067;SDS011;10194;50.824;7.134;2022-10-31T09:00:40;236.63;;;192.93;;
20067;SDS011;10194;50.824;7.134;2022-10-31T09:03:09;228.63;;;185.47;;
20067;SDS011;10194;50.824;7.134;2022-10-31T09:05:39;223.77;;;179.30;;
20067;SDS011;10194;50.824;7.134;2022-10-31T09:08:05;229.40;;;184.83;;
20067;SDS011;10194;50.824;7.134;2022-10-31T09:10:33;234.90;;;200.23;;
20067;SDS011;10194;50.824;7.134;2022-10-31T09:13:05;244.53;;;214.97;;
20067;SDS011;10194;50.824;7.134;2022-10-31T09:15:37;249.30;;;221.37;;
20067;SDS011;10194;50.824;7.134;2022-10-31T09:18:06;244.07;;;216.70;;
20067;SDS011;10194;50.824;7.134;2022-10-31T09:20:33;238.00;;;197.67;;
20067;SDS011;10194;50.824;7.134;2022-10-31T09:23:02;233.93;;;190.40;;
20067;SDS011;10194;50.824;7.134;2022-10-31T09:25:33;244.93;;;211.43;;
20067;SDS011;10194;50.824;7.134;2022-10-31T09:28:00;241.10;;;207.00;;
20067;SDS011;10194;50.824;7.134;2022-10-31T09:30:29;236.50;;;200.03;;
20067;SDS011;10194;50.824;7.134;2022-10-31T09:32:58;228.03;;;181.00;;
20067;SDS011;10194;50.824;7.134;2022-10-31T09:35:45;236.37;;;205.03;;
20067;SDS011;10194;50.824;7.134;2022-10-31T09:38:12;239.87;;;201.27;;
20067;SDS011;10194;50.824;7.134;2022-10-31T09:40:47;228.60;;;183.33;;
20067;SDS011;10194;50.824;7.134;2022-10-31T09:43:33;218.23;;;166.57;;
20067;SDS011;10194;50.824;7.134;2022-10-31T09:52:13;201.30;;;135.20;;
20067;SDS011;10194;50.824;7.134;2022-10-31T09:55:15;197.97;;;129.40;;
20067;SDS011;10194;50.824;7.134;2022-10-31T09:57:46;192.23;;;125.93;;
20067;SDS011;10194;50.824;7.134;2022-10-31T10:00:17;197.13;;;131.03;;
20067;SDS011;10194;50.824;7.134;2022-10-31T10:05:36;206.90;;;142.97;;
20067;SDS011;10194;50.824;7.134;2022-10-31T10:08:29;207.63;;;146.57;;
20067;SDS011;10194;50.824;7.134;2022-10-31T10:11:02;207.20;;;147.27;;
20067;SDS011;10194;50.824;7.134;2022-10-31T10:22:43;191.63;;;114.73;;
20067;SDS011;10194;50.824;7.134;2022-10-31T10:25:49;181.70;;;106.40;;
20067;SDS011;10194;50.824;7.134;2022-10-31T10:28:35;181.87;;;104.80;;
20067;SDS011;10194;50.824;7.134;2022-10-31T10:31:28;179.50;;;98.50;;
20067;SDS011;10194;50.824;7.134;2022-10-31T10:39:29;179.13;;;98.57;;
20067;SDS011;10194;50.824;7.134;2022-10-31T10:42:13;176.33;;;93.87;;
20067;SDS011;10194;50.824;7.134;2022-10-31T10:44:59;170.30;;;93.03;;
20067;SDS011;10194;50.824;7.134;2022-10-31T10:47:58;173.17;;;89.33;;
20067;SDS011;10194;50.824;7.134;2022-10-31T10:50:54;171.70;;;88.67;;
20067;SDS011;10194;50.824;7.134;2022-10-31T10:53:24;167.83;;;88.33;;
20067;SDS011;10194;50.824;7.134;2022-10-31T10:56:37;173.80;;;91.90;;
20067;SDS011;10194;50.824;7.134;2022-10-31T10:59:43;173.30;;;88.37;;
20067;SDS011;10194;50.824;7.134;2022-10-31T11:02:16;174.80;;;87.80;;
20067;SDS011;10194;50.824;7.134;2022-10-31T11:04:47;170.80;;;89.60;;
20067;SDS011;10194;50.824;7.134;2022-10-31T11:07:18;171.67;;;87.80;;
20067;SDS011;10194;50.824;7.134;2022-10-31T11:09:44;167.67;;;85.53;;
20067;SDS011;10194;50.824;7.134;2022-10-31T11:12:20;166.73;;;87.07;;
20067;SDS011;10194;50.824;7.134;2022-10-31T11:14:53;167.80;;;86.80;;
20067;SDS011;10194;50.824;7.134;2022-10-31T11:20:49;165.97;;;85.53;;
20067;SDS011;10194;50.824;7.134;2022-10-31T11:23:03;174.67;;;86.70;;
20067;SDS011;10194;50.824;7.134;2022-10-31T11:26:03;168.03;;;87.07;;
20067;SDS011;10194;50.824;7.134;2022-10-31T11:28:31;171.47;;;86.53;;
20067;SDS011;10194;50.824;7.134;2022-10-31T11:31:01;164.50;;;83.67;;
20067;SDS011;10194;50.824;7.134;2022-10-31T11:36:15;165.50;;;82.83;;
20067;SDS011;10194;50.824;7.134;2022-10-31T11:38:48;163.57;;;82.53;;
20067;SDS011;10194;50.824;7.134;2022-10-31T11:43:59;163.80;;;82.60;;
20067;SDS011;10194;50.824;7.134;2022-10-31T11:46:32;169.73;;;83.20;;
20067;SDS011;10194;50.824;7.134;2022-10-31T11:49:00;164.23;;;82.80;;
20067;SDS011;10194;50.824;7.134;2022-10-31T11:51:28;164.50;;;83.30;;
20067;SDS011;10194;50.824;7.134;2022-10-31T11:53:57;165.47;;;82.93;;
20067;SDS011;10194;50.824;7.134;2022-10-31T11:56:27;167.27;;;84.43;;
20067;SDS011;10194;50.824;7.134;2022-10-31T11:59:14;164.73;;;82.60;;
20067;SDS011;10194;50.824;7.134;2022-10-31T12:01:47;169.70;;;82.80;;
20067;SDS011;10194;50.824;7.134;2022-10-31T12:04:15;166.27;;;83.30;;
20067;SDS011;10194;50.824;7.134;2022-10-31T12:06:44;164.30;;;82.70;;
20067;SDS011;10194;50.824;7.134;2022-10-31T12:09:25;164.37;;;82.07;;
20067;SDS011;10194;50.824;7.134;2022-10-31T12:15:07;166.83;;;82.33;;
20067;SDS011;10194;50.824;7.134;2022-10-31T12:20:47;164.23;;;82.17;;
20067;SDS011;10194;50.824;7.134;2022-10-31T12:23:55;166.60;;;82.97;;
20067;SDS011;10194;50.824;7.134;2022-10-31T12:29:51;164.80;;;82.90;;
20067;SDS011;10194;50.824;7.134;2022-10-31T12:32:32;168.83;;;83.67;;
20067;SDS011;10194;50.824;7.134;2022-10-31T12:35:47;164.67;;;82.57;;
20067;SDS011;10194;50.824;7.134;2022-10-31T12:39:02;164.00;;;82.00;;
20067;SDS011;10194;50.824;7.134;2022-10-31T12:41:51;162.93;;;81.57;;
20067;SDS011;10194;50.824;7.134;2022-10-31T12:47:32;163.47;;;82.47;;
20067;SDS011;10194;50.824;7.134;2022-10-31T12:59:01;164.10;;;82.67;;
20067;SDS011;10194;50.824;7.134;2022-10-31T13:01:48;166.97;;;82.57;;
20067;SDS011;10194;50.824;7.134;2022-10-31T13:04:35;164.03;;;83.03;;
20067;SDS011;10194;50.824;7.134;2022-10-31T13:07:10;164.50;;;82.70;;
20067;SDS011;10194;50.824;7.134;2022-10-31T13:09:49;165.83;;;82.57;;
20067;SDS011;10194;50.824;7.134;2022-10-31T13:12:26;161.17;;;81.70;;
20067;SDS011;10194;50.824;7.134;2022-10-31T13:14:56;162.20;;;83.10;;
20067;SDS011;10194;50.824;7.134;2022-10-31T13:17:34;165.47;;;83.77;;
20067;SDS011;10194;50.824;7.134;2022-10-31T13:20:13;168.37;;;84.63;;
20067;SDS011;10194;50.824;7.134;2022-10-31T13:25:58;165.23;;;81.70;;
20067;SDS011;10194;50.824;7.134;2022-10-31T13:28:36;166.83;;;84.23;;
20067;SDS011;10194;50.824;7.134;2022-10-31T13:31:13;166.60;;;83.87;;
20067;SDS011;10194;50.824;7.134;2022-10-31T13:33:50;165.87;;;84.87;;
20067;SDS011;10194;50.824;7.134;2022-10-31T13:39:29;162.33;;;84.27;;
20067;SDS011;10194;50.824;7.134;2022-10-31T13:45:17;161.70;;;83.97;;
20067;SDS011;10194;50.824;7.134;2022-10-31T13:47:55;167.87;;;84.10;;
20067;SDS011;10194;50.824;7.134;2022-10-31T13:50:29;166.50;;;84.67;;
20067;SDS011;10194;50.824;7.134;2022-10-31T13:53:08;167.70;;;85.50;;
20067;SDS011;10194;50.824;7.134;2022-10-31T13:58:22;161.13;;;83.43;;
20067;SDS011;10194;50.824;7.134;2022-10-31T14:03:24;161.13;;;83.03;;
20067;SDS011;10194;50.824;7.134;2022-10-31T14:05:53;164.23;;;83.57;;
20067;SDS011;10194;50.824;7.134;2022-10-31T14:08:21;164.97;;;83.03;;
20067;SDS011;10194;50.824;7.134;2022-10-31T14:10:50;162.57;;;82.30;;
20067;SDS011;10194;50.824;7.134;2022-10-31T14:13:20;164.37;;;81.70;;
20067;SDS011;10194;50.824;7.134;2022-10-31T14:16:03;163.20;;;81.10;;
20067;SDS011;10194;50.824;7.134;2022-10-31T14:19:23;161.93;;;81.07;;
20067;SDS011;10194;50.824;7.134;2022-10-31T14:21:46;166.03;;;81.97;;
20067;SDS011;10194;50.824;7.134;2022-10-31T14:26:52;162.47;;;81.23;;
20067;SDS011;10194;50.824;7.134;2022-10-31T14:29:30;162.70;;;80.83;;
20067;SDS011;10194;50.824;7.134;2022-10-31T14:32:05;166.33;;;81.13;;
20067;SDS011;10194;50.824;7.134;2022-10-31T14:48:56;166.50;;;82.33;;
20067;SDS011;10194;50.824;7.134;2022-10-31T14:52:08;169.37;;;82.93;;
20067;SDS011;10194;50.824;7.134;2022-10-31T14:54:39;166.23;;;82.37;;
20067;SDS011;10194;50.824;7.134;2022-10-31T14:57:24;168.97;;;82.03;;
20067;SDS011;10194;50.824;7.134;2022-10-31T15:00:05;162.23;;;81.10;;
20067;SDS011;10194;50.824;7.134;2022-10-31T15:03:22;162.00;;;81.20;;
20067;SDS011;10194;50.824;7.134;2022-10-31T15:05:48;164.53;;;81.03;;
20067;SDS011;10194;50.824;7.134;2022-10-31T15:11:26;164.63;;;80.37;;
20067;SDS011;10194;50.824;7.134;2022-10-31T15:13:54;166.00;;;81.13;;
20067;SDS011;10194;50.824;7.134;2022-10-31T15:16:34;164.27;;;82.53;;
20067;SDS011;10194;50.824;7.134;2022-10-31T15:19:05;162.87;;;80.40;;
20067;SDS011;10194;50.824;7.134;2022-10-31T15:21:36;161.57;;;79.80;;
20067;SDS011;10194;50.824;7.134;2022-10-31T15:24:10;162.40;;;81.63;;
20067;SDS011;10194;50.824;7.134;2022-10-31T15:26:44;162.97;;;81.07;;
20067;SDS011;10194;50.824;7.134;2022-10-31T15:29:14;170.63;;;83.00;;
20067;SDS011;10194;50.824;7.134;2022-10-31T15:31:55;159.77;;;80.27;;
20067;SDS011;10194;50.824;7.134;2022-10-31T15:34:24;166.47;;;81.13;;
20067;SDS011;10194;50.824;7.134;2022-10-31T15:37:10;162.07;;;80.27;;
20067;SDS011;10194;50.824;7.134;2022-10-31T15:39:39;163.00;;;81.57;;
20067;SDS011;10194;50.824;7.134;2022-10-31T15:42:13;163.40;;;80.60;;
20067;SDS011;10194;50.824;7.134;2022-10-31T15:45:15;162.23;;;79.27;;
20067;SDS011;10194;50.824;7.134;2022-10-31T15:47:53;163.33;;;79.83;;
20067;SDS011;10194;50.824;7.134;2022-10-31T15:50:41;162.43;;;81.20;;
20067;SDS011;10194;50.824;7.134;2022-10-31T15:53:21;167.90;;;80.43;;
20067;SDS011;10194;50.824;7.134;2022-10-31T15:56:01;161.70;;;82.60;;
20067;SDS011;10194;50.824;7.134;2022-10-31T15:58:32;167.33;;;83.17;;
20067;SDS011;10194;50.824;7.134;2022-10-31T16:01:18;168.97;;;80.40;;
20067;SDS011;10194;50.824;7.134;2022-10-31T16:03:56;166.30;;;80.50;;
20067;SDS011;10194;50.824;7.134;2022-10-31T16:06:28;166.93;;;82.63;;
20067;SDS011;10194;50.824;7.134;2022-10-31T16:08:54;167.27;;;80.80;;
20067;SDS011;10194;50.824;7.134;2022-10-31T16:16:40;172.27;;;81.80;;
20067;SDS011;10194;50.824;7.134;2022-10-31T16:19:26;162.93;;;79.37;;
20067;SDS011;10194;50.824;7.134;2022-10-31T16:22:11;164.40;;;79.50;;
20067;SDS011;10194;50.824;7.134;2022-10-31T16:24:47;166.07;;;79.47;;
20067;SDS011;10194;50.824;7.134;2022-10-31T16:27:23;163.37;;;80.37;;
20067;SDS011;10194;50.824;7.134;2022-10-31T16:29:54;164.77;;;79.70;;
20067;SDS011;10194;50.824;7.134;2022-10-31T16:35:24;170.37;;;80.90;;
20067;SDS011;10194;50.824;7.134;2022-10-31T16:37:52;168.60;;;79.73;;
20067;SDS011;10194;50.824;7.134;2022-10-31T16:40:18;164.93;;;79.50;;
20067;SDS011;10194;50.824;7.134;2022-10-31T16:42:45;169.47;;;79.80;;
20067;SDS011;10194;50.824;7.134;2022-10-31T16:45:15;166.83;;;80.83;;
20067;SDS011;10194;50.824;7.134;2022-10-31T16:47:43;163.23;;;80.93;;
20067;SDS011;10194;50.824;7.134;2022-10-31T16:50:13;168.27;;;80.00;;
20067;SDS011;10194;50.824;7.134;2022-10-31T16:52:41;172.43;;;81.70;;
20067;SDS011;10194;50.824;7.134;2022-10-31T16:55:10;167.13;;;81.13;;